Time;durP1;ratioP1;P1;durP2;ratioP2;P2;SDS_P1;SDS_P2;PMS_P1;PMS_P2;Temp;Humidity;BMP_temperature;BMP_pressure;BME280_temperature;BME280_humidity;BME280_pressure;Samples;Min_cycle;Max_cycle;Signal;HPM_P1;HPM_P2
2023/07/31 00:00:00;;;;;;;;;2.50;2.50;;;;;21.71;47.02;101081.72;5034975;28;45339;-63
2023/07/31 00:02:25;;;;;;;;;3.75;2.50;;;;;21.65;47.02;101078.53;5038597;28;45252;-63
2023/07/31 00:04:51;;;;;;;;;3.00;2.00;;;;;21.66;47.41;101086.47;5039226;28;46302;-63
2023/07/31 00:07:16;;;;;;;;;3.00;3.00;;;;;21.66;47.40;101086.47;5039279;28;50084;-63
2023/07/31 00:09:41;;;;;;;;;4.75;2.25;;;;;21.64;47.03;101088.34;5039562;28;45464;-63
2023/07/31 00:12:07;;;;;;;;;4.00;3.00;;;;;21.60;47.66;101086.78;5039241;28;45552;-62
2023/07/31 00:14:32;;;;;;;;;2.75;2.75;;;;;21.59;47.18;101085.91;5039190;28;45458;-62
2023/07/31 00:16:58;;;;;;;;;4.00;3.00;;;;;21.57;47.75;101070.91;5039291;28;45412;-63
2023/07/31 00:19:23;;;;;;;;;2.00;2.00;;;;;21.54;48.01;101065.72;5039371;28;45385;-62
2023/07/31 00:21:49;;;;;;;;;4.00;2.50;;;;;21.58;47.19;101081.53;5039147;28;45460;-63
2023/07/31 00:24:14;;;;;;;;;4.75;3.50;;;;;21.57;47.39;101078.94;5021588;28;50360;-63
2023/07/31 00:26:39;;;;;;;;;3.25;2.25;;;;;21.54;47.23;101074.59;5041990;28;59817;-63
2023/07/31 00:29:04;;;;;;;;;2.75;2.75;;;;;21.52;47.81;101070.25;5041887;28;45373;-63
2023/07/31 00:31:30;;;;;;;;;2.00;2.00;;;;;21.53;47.57;101074.69;5041678;28;45217;-63
2023/07/31 00:33:55;;;;;;;;;2.50;2.50;;;;;21.52;47.74;101070.25;5042574;28;46323;-63
2023/07/31 00:36:20;;;;;;;;;3.75;3.00;;;;;21.50;47.42;101061.50;5042428;28;45226;-62
2023/07/31 00:38:46;;;;;;;;;5.00;3.00;;;;;21.48;48.00;101058.03;5042890;28;45210;-62
2023/07/31 00:41:11;;;;;;;;;4.00;4.00;;;;;21.46;47.77;101060.78;5042374;28;45277;-63
2023/07/31 00:43:36;;;;;;;;;6.50;2.75;;;;;21.46;47.70;101060.78;5042023;28;45201;-62
2023/07/31 00:46:02;;;;;;;;;4.00;4.00;;;;;21.47;47.97;101053.63;5042551;28;45252;-63
2023/07/31 00:48:28;;;;;;;;;4.25;2.00;;;;;21.43;48.23;101037.78;5042780;28;45225;-63
2023/07/31 00:50:53;;;;;;;;;5.75;2.50;;;;;21.43;47.65;101039.56;5042484;28;45170;-63
2023/07/31 00:53:19;;;;;;;;;1.00;1.00;;;;;21.42;48.26;101046.72;5042458;28;46301;-63
2023/07/31 00:55:44;;;;;;;;;2.25;2.25;;;;;21.40;48.18;101048.59;5041470;28;45459;-63
2023/07/31 00:58:10;;;;;;;;;6.25;2.75;;;;;21.39;48.50;101054.91;5042458;28;45456;-63
2023/07/31 01:00:35;;;;;;;;;4.25;3.00;;;;;21.38;48.60;101050.53;5042126;28;45438;-62
2023/07/31 01:03:01;;;;;;;;;3.50;3.50;;;;;21.35;48.60;101048.00;5042162;28;45354;-62
2023/07/31 01:05:56;;;;;;;;;3.25;1.50;;;;;21.34;48.14;101048.94;5042227;28;45367;-62
2023/07/31 01:08:44;;;;;;;;;5.75;4.50;;;;;21.31;48.60;101041.09;5037103;28;45342;-63
2023/07/31 01:11:19;;;;;;;;;3.00;3.00;;;;;21.30;48.87;101041.19;5017649;28;45330;-62
2023/07/31 01:13:45;;;;;;;;;3.00;3.00;;;;;21.26;48.83;101036.00;5039454;28;46415;-63
2023/07/31 01:16:11;;;;;;;;;4.00;2.75;;;;;21.26;48.78;101044.03;5041891;28;45196;-63
2023/07/31 01:18:36;;;;;;;;;4.00;4.00;;;;;21.26;48.60;101032.47;5042163;28;45267;-63
2023/07/31 01:21:16;;;;;;;;;5.00;4.50;;;;;21.25;48.66;101025.41;5041618;28;49676;-63
2023/07/31 01:24:14;;;;;;;;;2.00;2.00;;;;;21.23;48.89;101030.84;5041605;28;45316;-63
2023/07/31 01:26:41;;;;;;;;;2.50;2.50;;;;;21.21;48.57;101024.72;4998217;28;45598;-62
2023/07/31 01:29:16;;;;;;;;;3.00;2.00;;;;;21.18;48.91;101019.53;5040286;28;45348;-62
2023/07/31 01:31:42;;;;;;;;;4.25;3.00;;;;;21.17;48.50;101009.78;5041807;28;45168;-63
2023/07/31 01:34:09;;;;;;;;;4.25;2.00;;;;;21.16;49.12;101008.06;5041450;28;46117;-62
2023/07/31 01:36:35;;;;;;;;;3.25;2.75;;;;;21.17;49.00;101003.56;5040604;28;45361;-62
2023/07/31 01:39:02;;;;;;;;;3.00;3.00;;;;;21.16;49.13;101000.06;5041506;28;45487;-63
2023/07/31 01:41:27;;;;;;;;;3.00;2.00;;;;;21.15;48.56;101001.00;5040634;28;45398;-62
2023/07/31 01:43:53;;;;;;;;;1.75;1.75;;;;;21.15;48.98;101001.00;5040946;28;46067;-63
2023/07/31 01:46:18;;;;;;;;;3.25;1.25;;;;;21.15;48.80;101003.66;5023513;28;45451;-62
2023/07/31 01:48:43;;;;;;;;;4.00;2.75;;;;;21.16;48.51;100999.19;5041501;28;45543;-63
2023/07/31 01:51:09;;;;;;;;;3.00;3.00;;;;;21.13;48.74;101015.38;5040998;28;45611;-63
2023/07/31 01:53:34;;;;;;;;;5.00;3.50;;;;;21.14;49.15;101014.44;5039849;28;47065;-63
2023/07/31 01:55:59;;;;;;;;;2.50;2.00;;;;;21.11;48.79;101008.31;5041336;28;45391;-63
2023/07/31 01:58:24;;;;;;;;;3.50;3.00;;;;;21.10;48.84;101003.06;5041401;28;45317;-62
2023/07/31 02:00:50;;;;;;;;;2.50;2.00;;;;;21.07;49.11;101004.09;5041602;28;45365;-62
2023/07/31 02:03:15;;;;;;;;;3.00;3.00;;;;;21.06;49.38;101005.03;5040984;28;45341;-62
2023/07/31 02:05:45;;;;;;;;;3.00;2.00;;;;;21.06;48.93;100997.00;5041286;28;45222;-62
2023/07/31 02:08:11;;;;;;;;;2.50;2.25;;;;;21.03;49.15;101009.66;5041086;28;45472;-62
2023/07/31 02:10:36;;;;;;;;;4.25;3.00;;;;;21.01;49.57;101015.09;5041025;28;45335;-62
2023/07/31 02:13:03;;;;;;;;;4.00;3.00;;;;;20.99;49.55;101011.63;5040693;28;46244;-62
2023/07/31 02:15:29;;;;;;;;;3.75;3.00;;;;;20.98;49.47;100998.38;5040788;28;45472;-62
2023/07/31 02:17:54;;;;;;;;;2.50;2.50;;;;;20.97;49.38;101007.31;5040910;28;45283;-62
2023/07/31 02:20:19;;;;;;;;;0.75;0.75;;;;;20.96;49.67;101013.63;5040897;28;48003;-62
2023/07/31 02:22:45;;;;;;;;;3.00;3.00;;;;;20.93;49.86;100995.97;5040363;28;53930;-62
2023/07/31 02:25:10;;;;;;;;;2.50;2.50;;;;;20.92;49.31;100996.91;5040548;28;48964;-62
2023/07/31 02:27:35;;;;;;;;;5.00;2.25;;;;;20.91;49.23;100996.03;5040983;28;45144;-62
2023/07/31 02:30:01;;;;;;;;;2.00;1.25;;;;;20.88;49.42;100984.63;5040448;28;51710;-62
2023/07/31 02:32:26;;;;;;;;;3.00;3.00;;;;;20.88;49.28;100974.84;5039340;28;45902;-62
2023/07/31 02:34:51;;;;;;;;;0.75;0.75;;;;;20.87;49.30;100983.78;5040728;28;45342;-62
2023/07/31 02:37:17;;;;;;;;;2.00;2.00;;;;;20.88;49.21;100973.97;5040821;28;45250;-62
2023/07/31 02:39:42;;;;;;;;;3.00;1.50;;;;;20.88;49.61;100981.97;5040800;28;45323;-62
2023/07/31 02:42:07;;;;;;;;;5.00;2.75;;;;;20.85;49.32;100977.66;5040393;28;45859;-62
2023/07/31 02:44:33;;;;;;;;;2.00;2.00;;;;;20.84;49.61;100977.75;5040612;28;45229;-62
2023/07/31 02:46:58;;;;;;;;;3.00;1.50;;;;;20.78;49.73;100966.44;5040639;28;45478;-62
2023/07/31 02:49:23;;;;;;;;;2.50;1.75;;;;;20.78;49.46;100953.09;5040365;28;51259;-62
2023/07/31 02:51:49;;;;;;;;;2.00;2.00;;;;;20.79;49.18;100961.97;5040452;28;46164;-62
2023/07/31 02:54:14;;;;;;;;;3.25;2.50;;;;;20.77;49.63;100948.69;5040703;28;45507;-62
2023/07/31 02:56:39;;;;;;;;;2.75;2.75;;;;;20.76;49.68;100959.47;5040523;28;46475;-62
2023/07/31 02:59:04;;;;;;;;;2.00;2.00;;;;;20.71;49.62;100937.50;5039790;28;55106;-62
2023/07/31 03:01:30;;;;;;;;;3.75;2.25;;;;;20.71;49.48;100946.34;5040246;28;51855;-62
2023/07/31 03:03:56;;;;;;;;;3.50;1.25;;;;;20.70;49.08;100949.94;5040269;28;45656;-62
2023/07/31 03:06:21;;;;;;;;;0.25;0.25;;;;;20.61;49.71;100937.09;5040661;28;45415;-63
2023/07/31 03:08:46;;;;;;;;;3.75;3.00;;;;;20.67;49.41;100939.44;5040458;28;48837;-62
2023/07/31 03:11:12;;;;;;;;;2.50;1.50;;;;;20.65;49.78;100932.44;5040283;28;45304;-62
2023/07/31 03:13:37;;;;;;;;;2.25;2.25;;;;;20.62;49.24;100929.00;5039927;28;45388;-62
2023/07/31 03:16:02;;;;;;;;;8.50;3.75;;;;;20.60;49.78;100936.25;5040162;28;45872;-62
2023/07/31 03:18:28;;;;;;;;;4.00;2.00;;;;;20.59;49.17;100941.63;5040280;28;45562;-62
2023/07/31 03:20:53;;;;;;;;;3.75;3.75;;;;;20.59;49.33;100944.31;5040042;28;50828;-62
2023/07/31 03:23:18;;;;;;;;;2.00;2.00;;;;;20.57;49.59;100940.88;5021845;28;49141;-62
2023/07/31 03:26:00;;;;;;;;;1.50;1.50;;;;;20.58;49.46;100963.97;5040027;28;45466;-62
2023/07/31 03:28:26;;;;;;;;;1.00;1.00;;;;;20.55;49.46;100948.97;5039980;28;45425;-62
2023/07/31 03:30:52;;;;;;;;;1.00;1.00;;;;;20.56;49.94;100955.16;5039349;28;45826;-62
2023/07/31 03:33:17;;;;;;;;;2.25;2.00;;;;;20.55;49.58;100948.09;5040090;28;45351;-62
2023/07/31 03:35:42;;;;;;;;;1.75;1.50;;;;;20.53;49.44;100942.00;5039918;28;45480;-62
2023/07/31 03:38:08;;;;;;;;;3.00;2.00;;;;;20.52;49.94;100937.59;5040028;28;45336;-62
2023/07/31 03:40:33;;;;;;;;;5.75;3.00;;;;;20.52;49.84;100935.78;5039358;28;51829;-62
2023/07/31 03:42:58;;;;;;;;;2.25;2.00;;;;;20.51;50.09;100935.84;5039963;28;45238;-62
2023/07/31 03:45:24;;;;;;;;;2.50;2.00;;;;;20.50;49.99;100937.63;5039715;28;45504;-62
2023/07/31 03:47:49;;;;;;;;;2.75;1.75;;;;;20.46;49.90;100915.63;5039986;28;45315;-62
2023/07/31 03:50:14;;;;;;;;;2.50;2.50;;;;;20.48;50.01;100931.53;5039644;28;46236;-62
2023/07/31 03:52:41;;;;;;;;;3.00;2.00;;;;;20.48;50.08;100936.88;5027292;28;45279;-62
2023/07/31 03:55:06;;;;;;;;;3.75;2.25;;;;;20.47;49.42;100932.47;5024302;28;45476;-62
2023/07/31 03:57:32;;;;;;;;;1.50;1.00;;;;;20.48;49.56;100933.34;5019889;28;45227;-62
2023/07/31 03:59:58;;;;;;;;;4.25;2.25;;;;;20.47;49.38;100929.81;5035140;28;47946;-62
2023/07/31 04:02:23;;;;;;;;;5.00;2.50;;;;;20.49;49.92;100927.06;5043337;28;45226;-62
2023/07/31 04:04:48;;;;;;;;;1.75;1.75;;;;;20.49;49.97;100924.38;5043253;28;45258;-62
2023/07/31 04:07:14;;;;;;;;;3.00;1.25;;;;;20.46;50.22;100923.63;5043410;28;46360;-62
2023/07/31 04:09:39;;;;;;;;;3.50;3.50;;;;;20.46;49.67;100922.75;5043109;28;45379;-62
2023/07/31 04:12:05;;;;;;;;;3.75;3.75;;;;;20.46;49.93;100923.63;5043001;28;45399;-62
2023/07/31 04:14:30;;;;;;;;;2.75;2.00;;;;;20.46;49.53;100925.41;5042928;28;45439;-62
2023/07/31 04:16:55;;;;;;;;;3.50;1.25;;;;;20.47;50.01;100921.81;5043127;28;45475;-62
2023/07/31 04:19:20;;;;;;;;;2.00;2.00;;;;;20.44;50.11;100914.81;5042940;28;45341;-62
2023/07/31 04:21:46;;;;;;;;;2.00;2.00;;;;;20.41;49.54;100911.44;5043026;28;45340;-62
2023/07/31 04:24:11;;;;;;;;;2.00;2.00;;;;;20.44;49.99;100928.16;5042588;28;48476;-62
2023/07/31 04:26:36;;;;;;;;;3.00;2.00;;;;;20.43;50.04;100926.44;5041102;28;52481;-62
2023/07/31 04:29:02;;;;;;;;;1.75;1.75;;;;;20.42;50.04;100916.69;5042623;28;46424;-62
2023/07/31 04:31:27;;;;;;;;;2.00;1.00;;;;;20.41;49.67;100920.31;5029195;28;45262;-62
2023/07/31 04:33:52;;;;;;;;;3.75;2.75;;;;;20.38;49.71;100917.81;5028475;28;45470;-62
2023/07/31 04:36:18;;;;;;;;;3.00;2.25;;;;;20.35;49.86;100926.00;5022799;28;45144;-62
2023/07/31 04:38:43;;;;;;;;;3.00;2.00;;;;;20.30;50.09;100918.22;5022624;28;46139;-62
2023/07/31 04:41:08;;;;;;;;;5.00;1.75;;;;;20.26;49.58;100926.47;5022757;28;45294;-62
2023/07/31 04:43:34;;;;;;;;;3.75;3.75;;;;;20.26;49.57;100919.34;5021314;28;45441;-62
2023/07/31 04:45:59;;;;;;;;;2.50;2.00;;;;;20.20;50.25;100916.97;5022686;28;45342;-62
2023/07/31 04:48:24;;;;;;;;;1.00;1.00;;;;;20.22;49.51;100935.56;5022499;28;45264;-62
2023/07/31 04:50:50;;;;;;;;;2.00;2.00;;;;;20.19;49.97;100947.25;5022315;28;56161;-62
2023/07/31 04:53:15;;;;;;;;;3.00;1.00;;;;;20.18;49.94;100924.19;5022676;28;45147;-62
2023/07/31 04:55:40;;;;;;;;;3.00;2.00;;;;;20.14;49.94;100928.81;5021907;28;45330;-62
2023/07/31 04:58:05;;;;;;;;;3.25;2.00;;;;;20.17;49.84;100925.13;5022166;28;45259;-62
2023/07/31 05:00:31;;;;;;;;;2.50;1.50;;;;;20.15;49.98;100927.03;5042125;28;45238;-62
2023/07/31 05:02:56;;;;;;;;;5.50;1.75;;;;;20.09;49.92;100927.34;5042274;28;45820;-62
2023/07/31 05:05:21;;;;;;;;;2.25;2.25;;;;;20.11;49.48;100934.31;5042203;28;45369;-62
2023/07/31 05:07:47;;;;;;;;;4.00;3.00;;;;;20.11;49.93;100939.66;5042251;28;46247;-62
2023/07/31 05:10:12;;;;;;;;;4.25;3.00;;;;;20.09;49.59;100935.34;5041383;28;45330;-62
2023/07/31 05:12:38;;;;;;;;;3.00;3.00;;;;;20.05;49.68;100931.09;5041651;28;45230;-62
2023/07/31 05:15:04;;;;;;;;;4.25;2.75;;;;;20.06;49.75;100933.69;5056457;28;45563;-62
2023/07/31 05:17:29;;;;;;;;;3.75;3.75;;;;;20.03;49.70;100925.84;5057416;28;46037;-62
2023/07/31 05:19:54;;;;;;;;;3.00;3.00;;;;;20.02;49.71;100940.09;5022609;28;56538;-61
2023/07/31 05:22:19;;;;;;;;;4.50;3.00;;;;;19.96;50.34;100921.75;5021825;28;47661;-62
2023/07/31 05:24:45;;;;;;;;;4.00;4.00;;;;;19.90;50.22;100919.38;5021820;28;45254;-62
2023/07/31 05:27:10;;;;;;;;;5.50;4.50;;;;;19.96;50.34;100935.97;5004193;28;46276;-62
2023/07/31 05:29:35;;;;;;;;;8.00;7.50;;;;;19.95;49.80;100918.22;5021198;28;45389;-62
2023/07/31 05:32:01;;;;;;;;;5.50;2.75;;;;;19.96;49.94;100929.75;5022161;28;45476;-62
2023/07/31 05:34:26;;;;;;;;;3.00;3.00;;;;;19.94;50.57;100926.31;5003930;28;45436;-62
2023/07/31 05:36:52;;;;;;;;;3.75;3.00;;;;;19.94;50.56;100923.66;5020242;28;46361;-62
2023/07/31 05:39:19;;;;;;;;;3.50;3.50;;;;;19.91;50.59;100919.34;5021733;28;45318;-62
2023/07/31 05:41:44;;;;;;;;;4.75;3.75;;;;;19.90;50.70;100916.72;5021768;28;45234;-62
2023/07/31 05:44:10;;;;;;;;;2.75;2.00;;;;;19.88;50.44;100919.47;5021323;28;45507;-62
2023/07/31 05:46:35;;;;;;;;;4.00;4.00;;;;;19.87;50.47;100919.56;5021739;28;49688;-62
2023/07/31 05:49:01;;;;;;;;;5.00;3.75;;;;;19.88;50.93;100910.63;5021548;28;45450;-63
2023/07/31 05:51:27;;;;;;;;;4.00;4.00;;;;;19.88;50.99;100921.28;5020712;28;45630;-62
2023/07/31 05:53:52;;;;;;;;;5.50;5.00;;;;;19.86;50.93;100916.03;5021504;28;45325;-62
2023/07/31 05:56:18;;;;;;;;;5.50;4.25;;;;;19.87;50.49;100912.41;5021392;28;45358;-62
2023/07/31 05:58:43;;;;;;;;;8.00;4.75;;;;;19.86;51.14;100907.16;5026203;28;45167;-62
2023/07/31 06:01:08;;;;;;;;;2.50;2.50;;;;;19.85;50.94;100906.31;5041678;28;45162;-62
2023/07/31 06:03:34;;;;;;;;;6.50;6.25;;;;;19.88;50.84;100900.81;5034909;28;45705;-62
2023/07/31 06:05:59;;;;;;;;;9.25;6.50;;;;;19.87;50.73;100895.56;5021445;28;45400;-62
2023/07/31 06:08:25;;;;;;;;;6.75;5.00;;;;;19.86;51.30;100900.03;5021228;28;45373;-63
2023/07/31 06:10:50;;;;;;;;;5.75;5.00;;;;;19.89;51.00;100904.34;5021400;28;45322;-62
2023/07/31 06:13:15;;;;;;;;;4.75;4.75;;;;;19.88;50.86;100886.63;5034838;28;45482;-62
2023/07/31 06:15:41;;;;;;;;;7.00;5.00;;;;;19.89;51.13;100875.88;5039313;28;46588;-62
2023/07/31 06:18:07;;;;;;;;;7.25;5.50;;;;;19.89;51.58;100875.88;5040977;28;45379;-62
2023/07/31 06:20:34;;;;;;;;;3.25;2.75;;;;;19.89;51.18;100870.53;5041251;28;45363;-62
2023/07/31 06:22:59;;;;;;;;;5.00;4.00;;;;;19.91;51.81;100871.34;5040234;28;45599;-62
2023/07/31 06:25:24;;;;;;;;;5.00;5.00;;;;;19.90;51.68;100858.94;5039441;28;46382;-62
2023/07/31 06:27:50;;;;;;;;;7.50;5.50;;;;;19.89;51.99;100857.22;5040972;28;45320;-62
2023/07/31 06:30:15;;;;;;;;;6.25;5.50;;;;;19.89;51.75;100865.22;5041014;28;45161;-62
2023/07/31 06:32:40;;;;;;;;;7.00;6.50;;;;;19.91;52.23;100868.66;5040827;28;45270;-62
2023/07/31 06:35:06;;;;;;;;;5.50;5.25;;;;;19.91;51.94;100855.34;5039162;28;45552;-62
2023/07/31 06:37:32;;;;;;;;;5.50;4.50;;;;;19.92;52.41;100857.06;5040755;28;45348;-63
2023/07/31 06:39:57;;;;;;;;;8.25;5.00;;;;;19.93;52.23;100864.09;5040983;28;45254;-62
2023/07/31 06:42:23;;;;;;;;;7.00;5.75;;;;;19.94;52.35;100871.16;5038670;28;45171;-63
2023/07/31 06:44:48;;;;;;;;;7.25;5.50;;;;;19.94;52.73;100867.66;5040219;28;45381;-62
2023/07/31 06:47:13;;;;;;;;;6.00;6.00;;;;;19.96;52.52;100860.41;5040681;28;45367;-62
2023/07/31 06:49:39;;;;;;;;;6.00;4.50;;;;;19.98;52.62;100871.88;5040870;28;45164;-62
2023/07/31 06:52:04;;;;;;;;;8.00;6.50;;;;;19.99;52.77;100878.94;5040656;28;45226;-62
2023/07/31 06:54:29;;;;;;;;;8.25;6.00;;;;;20.01;52.36;100879.69;5040549;28;46068;-62
2023/07/31 06:56:55;;;;;;;;;10.00;5.50;;;;;20.01;52.48;100887.69;5039970;28;57420;-62
2023/07/31 06:59:20;;;;;;;;;7.00;5.25;;;;;20.06;52.25;100893.69;5018817;28;45544;-63
2023/07/31 07:01:45;;;;;;;;;3.00;2.75;;;;;20.07;52.91;100887.38;5037413;28;45434;-62
2023/07/31 07:04:11;;;;;;;;;6.00;6.00;;;;;20.08;52.67;100883.78;5040250;28;45243;-63
2023/07/31 07:06:36;;;;;;;;;6.75;6.25;;;;;20.08;52.49;100870.44;5022464;28;45379;-62
2023/07/31 07:09:02;;;;;;;;;7.75;5.75;;;;;20.08;53.00;100865.13;5040634;28;45478;-62
2023/07/31 07:11:27;;;;;;;;;5.00;5.00;;;;;20.06;52.79;100860.81;5040343;28;45385;-62
2023/07/31 07:13:52;;;;;;;;;8.00;6.00;;;;;20.08;52.58;100858.94;5039775;28;50095;-62
2023/07/31 07:16:17;;;;;;;;;5.25;5.25;;;;;20.09;52.61;100864.19;5040156;28;50981;-62
2023/07/31 07:18:43;;;;;;;;;7.25;5.50;;;;;20.11;53.35;100862.31;5040464;28;45483;-62
2023/07/31 07:21:08;;;;;;;;;9.00;9.00;;;;;20.13;53.04;100864.88;5040244;28;45501;-62
2023/07/31 07:23:33;;;;;;;;;7.00;5.25;;;;;20.14;52.99;100866.59;5039925;28;46147;-62
2023/07/31 07:25:59;;;;;;;;;6.50;5.00;;;;;20.12;53.35;100865.81;5040161;28;45415;-62
2023/07/31 07:28:24;;;;;;;;;7.25;6.00;;;;;20.15;53.15;100868.34;5038840;28;45237;-63
2023/07/31 07:30:56;;;;;;;;;6.50;4.00;;;;;20.13;53.15;100857.72;5040230;28;45362;-62
2023/07/31 07:33:21;;;;;;;;;7.00;5.75;;;;;20.16;53.11;100859.38;5039455;28;47162;-62
2023/07/31 07:35:46;;;;;;;;;5.25;3.75;;;;;20.20;53.55;100868.06;5039390;28;45376;-62
2023/07/31 07:38:14;;;;;;;;;8.75;7.50;;;;;20.20;53.37;100868.06;5040169;28;45448;-62
2023/07/31 07:40:40;;;;;;;;;7.25;5.50;;;;;20.25;53.49;100860.69;5040011;28;45348;-63
2023/07/31 07:43:06;;;;;;;;;10.75;6.50;;;;;20.25;53.67;100848.22;5021725;28;46039;-62
2023/07/31 07:45:31;;;;;;;;;8.25;6.75;;;;;20.29;53.87;100854.28;5039884;28;45226;-62
2023/07/31 07:47:56;;;;;;;;;5.75;5.25;;;;;20.30;53.55;100850.63;5040148;28;45218;-62
2023/07/31 07:50:21;;;;;;;;;10.50;6.25;;;;;20.35;53.81;100861.94;5039973;28;46557;-62
2023/07/31 07:52:47;;;;;;;;;3.25;1.75;;;;;20.32;53.41;100855.91;5039894;28;46087;-62
2023/07/31 07:55:12;;;;;;;;;11.25;5.50;;;;;20.40;53.54;100867.03;5039634;28;45230;-62
2023/07/31 07:57:37;;;;;;;;;6.75;3.25;;;;;20.45;53.26;100864.97;5039988;28;45221;-62
2023/07/31 08:00:03;;;;;;;;;4.00;4.00;;;;;20.47;53.62;100857.75;5039647;28;45223;-62
2023/07/31 08:02:28;;;;;;;;;9.50;7.00;;;;;20.48;53.53;100850.59;5039579;28;46078;-63
2023/07/31 08:04:54;;;;;;;;;5.50;5.25;;;;;20.55;53.71;100849.31;5039539;28;45217;-63
2023/07/31 08:07:19;;;;;;;;;6.75;5.50;;;;;20.60;53.07;100855.28;5039845;28;45497;-63
2023/07/31 08:09:44;;;;;;;;;7.00;6.00;;;;;20.63;53.20;100849.78;5039655;28;45248;-63
2023/07/31 08:12:09;;;;;;;;;11.00;5.25;;;;;20.65;53.58;100868.38;5039294;28;45476;-63
2023/07/31 08:14:35;;;;;;;;;6.75;6.00;;;;;20.66;53.50;100852.25;5039269;28;45400;-63
2023/07/31 08:17:02;;;;;;;;;5.75;5.75;;;;;20.71;53.38;100846.72;5039622;28;45459;-63
2023/07/31 08:19:27;;;;;;;;;7.00;6.00;;;;;20.75;53.14;100848.25;5039064;28;45317;-63
2023/07/31 08:21:53;;;;;;;;;5.25;4.25;;;;;20.80;52.91;100858.69;5038853;28;52790;-63
2023/07/31 08:24:18;;;;;;;;;4.00;2.75;;;;;20.82;53.16;100846.09;5039448;28;45246;-63
2023/07/31 08:26:43;;;;;;;;;7.50;6.25;;;;;20.83;53.44;100855.84;5039456;28;45459;-63
2023/07/31 08:29:09;;;;;;;;;11.50;6.00;;;;;20.82;53.12;100859.47;5039209;28;45464;-63
2023/07/31 08:31:34;;;;;;;;;4.75;4.75;;;;;20.85;52.78;100860.16;5039421;28;45317;-63
2023/07/31 08:34:00;;;;;;;;;6.50;4.75;;;;;20.89;53.32;100859.06;5014831;28;45433;-63
2023/07/31 08:36:25;;;;;;;;;9.75;7.25;;;;;20.93;53.25;100849.91;5019669;28;45309;-63
2023/07/31 08:38:51;;;;;;;;;8.00;6.50;;;;;20.97;53.11;100869.31;5001537;28;45195;-63
2023/07/31 08:41:19;;;;;;;;;7.00;6.00;;;;;21.00;52.67;100861.09;5019261;28;45218;-63
2023/07/31 08:43:49;;;;;;;;;5.75;5.00;;;;;21.05;52.50;100835.00;5018967;28;45231;-63
2023/07/31 08:46:14;;;;;;;;;5.75;5.00;;;;;21.09;52.75;100838.34;5021486;28;45358;-63
2023/07/31 08:48:42;;;;;;;;;4.25;4.25;;;;;21.13;52.48;100818.56;5022533;28;45257;-63
2023/07/31 08:51:07;;;;;;;;;4.75;4.75;;;;;21.17;52.79;100827.22;5022764;28;45221;-63
2023/07/31 08:53:33;;;;;;;;;8.00;6.75;;;;;21.26;52.25;100813.34;5022650;28;45372;-62
2023/07/31 08:55:59;;;;;;;;;4.50;4.25;;;;;21.29;52.73;100807.81;5021413;28;45214;-63
2023/07/31 08:58:26;;;;;;;;;6.25;6.25;;;;;21.31;52.78;100829.97;5024560;28;45413;-64
2023/07/31 09:00:52;;;;;;;;;6.25;6.00;;;;;21.35;52.73;100836.84;5042491;28;46392;-63
2023/07/31 09:03:18;;;;;;;;;7.00;4.75;;;;;21.39;52.67;100817.00;5042007;28;45412;-63
2023/07/31 09:05:46;;;;;;;;;4.75;4.00;;;;;21.39;52.00;100806.31;5042433;28;45268;-63
2023/07/31 09:08:14;;;;;;;;;5.50;4.00;;;;;21.40;52.37;100818.75;5042339;28;45293;-63
2023/07/31 09:10:43;;;;;;;;;8.00;6.00;;;;;21.46;52.19;100806.84;5042092;28;46196;-63
2023/07/31 09:13:10;;;;;;;;;4.75;3.50;;;;;21.45;51.90;100826.50;5041925;28;45498;-63
2023/07/31 09:15:36;;;;;;;;;6.25;5.25;;;;;21.49;52.25;100817.34;5042265;28;45321;-63
2023/07/31 09:18:03;;;;;;;;;5.50;5.50;;;;;21.50;52.49;100824.41;5042034;28;45531;-62
2023/07/31 09:20:29;;;;;;;;;4.75;4.00;;;;;21.51;52.30;100838.63;5024039;28;46678;-63
2023/07/31 09:22:55;;;;;;;;;5.75;3.00;;;;;21.49;51.85;100840.56;5041728;28;45222;-63
2023/07/31 09:25:22;;;;;;;;;5.00;3.00;;;;;21.45;52.08;100831.00;5042197;28;45585;-63
2023/07/31 09:27:48;;;;;;;;;9.00;9.00;;;;;21.45;52.46;100831.00;5041847;28;45262;-63
2023/07/31 09:30:15;;;;;;;;;6.25;5.75;;;;;21.47;51.92;100826.41;5041595;28;45376;-63
2023/07/31 09:32:40;;;;;;;;;5.75;4.00;;;;;21.48;52.29;100809.41;5041833;28;45285;-63
2023/07/31 09:35:30;;;;;;;;;5.25;5.00;;;;;21.45;52.63;100826.50;5041924;28;45262;-63
2023/07/31 09:38:08;;;;;;;;;5.00;5.00;;;;;21.42;52.14;100821.31;5032773;28;45521;-63
2023/07/31 09:40:36;;;;;;;;;4.75;4.75;;;;;21.41;52.33;100814.28;5041555;28;46250;-63
2023/07/31 09:43:03;;;;;;;;;5.00;4.75;;;;;21.38;52.79;100823.34;5041336;28;45226;-63
2023/07/31 09:45:29;;;;;;;;;7.50;5.50;;;;;21.38;52.66;100823.34;5041725;28;45347;-63
2023/07/31 09:47:56;;;;;;;;;6.25;6.25;;;;;21.39;52.69;100822.34;5041741;28;45166;-63
2023/07/31 09:50:23;;;;;;;;;5.25;4.00;;;;;21.35;52.82;100810.13;5041475;28;45340;-63
2023/07/31 09:52:49;;;;;;;;;9.25;5.25;;;;;21.35;53.10;100823.50;5040382;28;45771;-63
2023/07/31 09:55:14;;;;;;;;;4.25;3.25;;;;;21.33;52.93;100822.72;5041467;28;45406;-63
2023/07/31 09:57:43;;;;;;;;;6.00;4.50;;;;;21.32;53.12;100817.47;5040943;28;45313;-63
2023/07/31 10:00:10;;;;;;;;;9.25;4.50;;;;;21.26;52.84;100810.69;5041062;28;46201;-63
2023/07/31 10:02:37;;;;;;;;;7.00;6.00;;;;;21.28;53.36;100819.44;5040900;28;45439;-62
2023/07/31 10:05:03;;;;;;;;;4.75;4.00;;;;;21.26;53.73;100830.22;5036811;28;45273;-63
2023/07/31 10:07:30;;;;;;;;;8.25;5.75;;;;;21.28;53.44;100822.13;5031009;28;45388;-63
2023/07/31 10:09:59;;;;;;;;;4.50;4.50;;;;;21.26;53.50;100824.88;5021104;28;46195;-63
2023/07/31 10:12:28;;;;;;;;;7.00;5.25;;;;;21.24;53.48;100816.13;5028105;28;45242;-63
2023/07/31 10:14:54;;;;;;;;;4.00;4.00;;;;;21.23;53.46;100790.34;5040919;28;45439;-63
2023/07/31 10:17:21;;;;;;;;;6.50;6.25;;;;;21.25;53.39;100782.22;5041418;28;45340;-63
2023/07/31 10:19:48;;;;;;;;;4.75;4.75;;;;;21.23;53.61;100779.66;5023003;28;46315;-63
2023/07/31 10:22:14;;;;;;;;;4.75;3.50;;;;;21.24;53.69;100776.03;5041069;28;45245;-63
2023/07/31 10:24:42;;;;;;;;;6.00;5.75;;;;;21.24;53.72;100775.16;5040951;28;45486;-63
2023/07/31 10:27:08;;;;;;;;;5.00;3.75;;;;;21.24;53.47;100785.84;5040702;28;45388;-63
2023/07/31 10:29:34;;;;;;;;;8.00;7.50;;;;;21.24;53.10;100788.53;5040491;28;46062;-63
2023/07/31 10:32:00;;;;;;;;;7.75;4.25;;;;;21.23;53.96;100790.34;5041160;28;45422;-62
2023/07/31 10:34:26;;;;;;;;;6.50;3.50;;;;;21.19;53.61;100779.91;5040789;28;45464;-63
2023/07/31 10:37:27;;;;;;;;;8.50;4.50;;;;;21.19;53.74;100761.22;5031659;28;45375;-62
2023/07/31 10:40:02;;;;;;;;;9.50;7.25;;;;;21.15;54.39;100765.03;5030988;28;46385;-62
2023/07/31 10:42:45;;;;;;;;;8.25;5.50;;;;;21.13;53.88;100766.91;5020617;28;45339;-63
2023/07/31 10:45:10;;;;;;;;;9.00;7.50;;;;;21.09;54.03;100772.44;5020588;28;45474;-63
2023/07/31 10:47:45;;;;;;;;;7.75;5.75;;;;;21.11;54.22;100765.19;5020628;28;45329;-62
2023/07/31 10:50:23;;;;;;;;;3.75;3.00;;;;;21.11;54.12;100765.19;5020601;28;46233;-63
2023/07/31 10:52:52;;;;;;;;;11.00;8.25;;;;;21.13;54.85;100764.25;5020569;28;45329;-62
2023/07/31 10:55:31;;;;;;;;;10.50;7.00;;;;;21.15;54.55;100767.69;5020311;28;45253;-62
2023/07/31 10:58:13;;;;;;;;;7.00;7.00;;;;;21.15;54.86;100767.69;5020382;28;45325;-62
2023/07/31 11:00:41;;;;;;;;;8.75;7.75;;;;;21.14;54.86;100755.28;5028097;28;45225;-62
2023/07/31 11:03:10;;;;;;;;;7.75;7.00;;;;;21.14;54.67;100752.59;5040242;28;45439;-62
2023/07/31 11:05:57;;;;;;;;;7.00;6.00;;;;;21.15;54.84;100754.34;5040555;28;45420;-62
2023/07/31 11:08:28;;;;;;;;;9.50;8.50;;;;;21.13;54.75;100766.91;5040305;28;45248;-62
2023/07/31 11:11:02;;;;;;;;;6.25;5.75;;;;;21.14;55.42;100764.13;5030915;28;46320;-62
2023/07/31 11:13:51;;;;;;;;;6.75;6.00;;;;;21.14;55.33;100771.31;5035849;28;45366;-62
2023/07/31 11:16:18;;;;;;;;;8.00;7.00;;;;;21.09;55.26;100761.75;5040249;28;45301;-62
2023/07/31 11:18:47;;;;;;;;;7.00;6.00;;;;;21.11;55.41;100761.66;5022162;28;45237;-62
2023/07/31 11:21:17;;;;;;;;;10.00;8.00;;;;;21.09;55.60;100750.19;5039995;28;45370;-63